createdAt,value
2022-09-05T05:31:40.973Z,99.90
2022-09-05T05:34:47.601Z,99.90
2022-09-05T05:37:59.468Z,99.90
2022-09-05T05:41:37.720Z,99.90
2022-09-05T05:44:39.554Z,99.90
2022-09-05T05:47:47.096Z,99.90
2022-09-05T05:51:15.056Z,99.90
2022-09-05T05:54:42.556Z,99.90
2022-09-05T05:58:14.340Z,99.90
2022-09-05T06:01:43.398Z,99.90
2022-09-05T06:05:25.530Z,99.90
2022-09-05T06:13:15.998Z,99.90
2022-09-05T06:50:24.192Z,99.90
2022-09-05T06:53:46.792Z,99.90
2022-09-05T06:57:30.636Z,99.90
2022-09-05T07:00:55.320Z,99.90
2022-09-05T07:04:33.309Z,99.90
2022-09-05T07:07:46.684Z,99.90
2022-09-05T07:11:15.496Z,99.90
2022-09-05T07:14:24.498Z,99.90
2022-09-05T07:18:09.209Z,99.90
2022-09-05T07:21:26.130Z,99.90
2022-09-05T07:24:53.224Z,99.90
2022-09-05T07:28:26.337Z,99.90
2022-09-05T07:31:37.962Z,99.90
2022-09-05T07:34:40.068Z,99.90
2022-09-05T07:37:45.101Z,99.90
2022-09-05T07:40:55.301Z,99.90
2022-09-05T07:44:05.079Z,99.90
2022-09-05T07:47:16.911Z,99.90
2022-09-05T07:56:36.334Z,99.90
2022-09-05T07:56:51.884Z,99.90
2022-09-05T08:00:31.424Z,99.90
2022-09-05T08:03:33.988Z,99.90
2022-09-05T08:07:48.120Z,99.90
2022-09-05T08:10:09.702Z,99.90
2022-09-05T08:13:24.744Z,99.90
2022-09-05T08:16:39.292Z,99.90
2022-09-05T08:20:08.611Z,99.90
2022-09-05T08:23:38.995Z,99.90
2022-09-05T08:26:50.783Z,99.90
2022-09-05T08:30:26.771Z,99.90
2022-09-05T08:33:32.200Z,99.90
2022-09-05T08:36:41.312Z,98.30
2022-09-05T08:39:44.505Z,95.30
2022-09-05T08:43:51.748Z,95.40
2022-09-05T08:46:42.372Z,93.90
2022-09-05T08:50:03.516Z,93.30
2022-09-05T08:53:46.348Z,88.00
2022-09-05T08:57:28.750Z,88.20
2022-09-05T09:00:41.604Z,84.90
2022-09-05T09:04:17.068Z,82.00
2022-09-05T09:07:50.944Z,81.80
2022-09-05T09:11:05.044Z,86.50
2022-09-05T09:14:32.767Z,85.90
2022-09-05T09:17:43.517Z,82.30
2022-09-05T09:21:22.791Z,83.10
2022-09-05T09:24:38.419Z,81.10
2022-09-05T09:28:50.214Z,80.30
2022-09-05T09:31:46.616Z,79.10
2022-09-05T09:35:26.329Z,78.20
2022-09-05T09:38:55.286Z,77.00
2022-09-05T09:42:33.110Z,75.50
2022-09-05T09:46:17.004Z,73.50
2022-09-05T09:49:58.660Z,72.10
2022-09-05T09:53:23.567Z,75.20
2022-09-05T09:56:34.459Z,80.50
2022-09-05T10:00:06.684Z,76.90
2022-09-05T10:10:32.906Z,75.20
2022-09-05T10:10:54.004Z,75.60
2022-09-05T10:11:53.665Z,73.00
2022-09-05T10:15:38.107Z,71.60
2022-09-05T10:19:14.740Z,73.90
2022-09-05T10:22:46.833Z,74.10
2022-09-05T10:26:17.671Z,79.10
2022-09-05T10:29:47.591Z,75.60
2022-09-05T10:35:08.969Z,76.90
2022-09-05T10:36:59.045Z,79.20
2022-09-05T10:40:07.328Z,76.50
2022-09-05T10:43:23.884Z,78.40
2022-09-05T10:46:51.750Z,78.00
2022-09-05T10:50:23.215Z,77.80
2022-09-05T10:53:52.818Z,78.90
2022-09-05T10:57:34.551Z,82.40
2022-09-05T11:02:21.267Z,83.00
2022-09-05T11:04:49.628Z,81.60
2022-09-05T11:08:25.288Z,82.60
2022-09-05T11:11:34.328Z,80.40
2022-09-05T11:14:52.358Z,83.40
2022-09-05T11:18:03.838Z,78.70
2022-09-05T11:21:16.503Z,75.20
2022-09-05T11:24:58.060Z,75.50
2022-09-05T11:28:25.899Z,76.30
2022-09-05T11:32:43.538Z,73.60
2022-09-05T11:40:02.803Z,75.90
2022-09-05T11:40:06.718Z,77.50
2022-09-05T11:43:42.275Z,76.20
2022-09-05T11:47:29.906Z,79.60
2022-09-05T11:51:12.081Z,80.10
2022-09-05T11:54:30.618Z,81.80
2022-09-05T11:57:56.858Z,85.60
2022-09-05T12:05:49.884Z,84.30
2022-09-05T12:08:45.559Z,81.00
2022-09-05T12:12:39.309Z,80.30
2022-09-05T12:15:53.435Z,79.50
2022-09-05T12:19:48.622Z,80.70
2022-09-05T12:23:20.932Z,82.70
2022-09-05T12:27:42.635Z,85.10
2022-09-05T12:30:08.265Z,83.30
2022-09-05T12:36:02.691Z,83.40
2022-09-05T12:41:37.137Z,81.30
2022-09-05T12:41:42.465Z,84.20
2022-09-05T12:41:43.318Z,82.80
2022-09-05T12:44:40.157Z,82.00
2022-09-05T12:47:16.636Z,82.80
2022-09-05T12:50:31.610Z,82.50
2022-09-05T12:53:58.902Z,83.20
2022-09-05T13:01:01.545Z,83.00
2022-09-05T13:03:09.385Z,81.70
2022-09-05T13:04:30.857Z,82.20
2022-09-05T13:07:40.947Z,81.90
2022-09-05T13:14:47.604Z,82.40
2022-09-05T13:15:01.251Z,81.20
2022-09-05T13:18:10.170Z,81.50
2022-09-05T13:21:28.606Z,80.90
2022-09-05T13:24:38.531Z,82.90
2022-09-05T13:27:56.538Z,82.40
2022-09-05T13:37:55.687Z,81.80
2022-09-05T13:38:29.043Z,82.40
2022-09-05T13:41:44.721Z,82.20
2022-09-05T13:44:51.487Z,83.20
2022-09-05T13:48:15.261Z,83.30
2022-09-05T13:51:40.745Z,83.60
2022-09-05T13:54:51.685Z,83.40
2022-09-05T13:58:18.127Z,83.60
2022-09-05T14:02:07.747Z,84.10
2022-09-05T14:05:39.930Z,83.00
2022-09-05T14:12:49.746Z,83.80
2022-09-05T14:15:59.001Z,83.00
2022-09-05T14:19:23.413Z,82.40
2022-09-05T14:23:04.032Z,82.40
2022-09-05T14:26:15.534Z,82.60
2022-09-05T14:29:25.055Z,84.40
2022-09-05T14:37:36.128Z,84.70
2022-09-05T14:37:45.593Z,83.20
2022-09-05T14:40:32.795Z,82.70
2022-09-05T14:44:05.476Z,83.30
2022-09-05T14:47:47.434Z,83.70
2022-09-05T14:51:29.981Z,85.10
2022-09-05T15:02:44.410Z,86.20
2022-09-05T15:02:51.033Z,86.10
2022-09-05T15:05:11.549Z,86.10
2022-09-05T15:09:42.159Z,87.00
2022-09-05T15:12:15.585Z,87.20
2022-09-05T15:15:06.617Z,86.30
2022-09-05T15:18:19.514Z,87.10
2022-09-05T15:21:35.349Z,87.60
2022-09-05T15:24:37.336Z,87.70
2022-09-05T15:27:39.039Z,87.40
2022-09-05T15:30:56.409Z,87.70
2022-09-05T15:34:20.354Z,88.90
2022-09-05T15:37:42.628Z,88.70
2022-09-05T15:40:44.375Z,88.90
2022-09-05T15:43:51.409Z,88.10
2022-09-05T15:47:03.776Z,87.60
2022-09-05T15:50:22.133Z,87.30
2022-09-05T15:53:34.325Z,88.60
2022-09-05T15:56:37.006Z,88.20
2022-09-05T15:59:48.042Z,89.60
